Impacts METAR Board
IDs:

KTPA - Tampa Intl Arpt, FL, US

Updated at: 0200 UTC 23 Sep 2018
Potential Impact None Slight Moderate High
Time 22/14Z 22/15Z 22/16Z 22/17Z 22/18Z 22/19Z 22/20Z 22/21Z 22/22Z 22/23Z 23/00Z 23/01Z 23/02Z
Temp85 87 90 89 92 92 93 92 92 90 88 87 85
Dewpt73 72 71 70 69 68 68 67 66 68 67 68 71
Altim30.05 30.04 30.04 30.02 30.00 29.99 29.96 29.95 29.96 29.96 29.96 29.97 30.00
VIS10 10 10 10 10 10 10 10 10 10 10 10 10
CIG-- 250 250 250 250 270 280 300 300 300 300 -- --
CoverSCTBKNBKNBKNBKNBKNBKNBKNBKNBKNBKNSCTSCT
FltCatVFRVFRVFRVFRVFRVFRVFRVFRVFRVFRVFRVFRVFR
WX--------------------------
WDir50600707011006001006000
WSpd5 7 5 7 6 5 5 7 6 8 6 4 4
WGst-- -- -- -- -- -- -- -- -- -- -- -- --
Raw hourly METARs
KTPA 221353Z 05005KT 10SM FEW035 FEW110 SCT250 29/23 A3005 RMK AO2 SLP176 T02940228
KTPA 221453Z 06007KT 10SM FEW033 FEW110 BKN250 31/22 A3004 RMK AO2 SLP173 T03060222 50002
KTPA 221553Z VRB05KT 10SM SCT030 SCT120 BKN250 32/22 A3004 RMK AO2 SLP171 T03220217
KTPA 221653Z 07007KT 10SM SCT036 SCT150 BKN250 32/21 A3002 RMK AO2 SLP165 T03170211
KTPA 221753Z 07006KT 10SM SCT040 SCT140 BKN250 33/21 A3000 RMK AO2 SLP159 T03330206 10333 20256 58014
KTPA 221853Z 11005KT 10SM SCT047 BKN270 33/20 A2999 RMK AO2 SLP153 T03330200
KTPA 221953Z VRB05KT 10SM FEW050 BKN280 34/20 A2996 RMK AO2 SLP145 T03390200
KTPA 222053Z 06007KT 030V100 10SM FEW050TCU BKN300 33/19 A2995 RMK AO2 SLP142 CB DSNT W TCU S T03330194 56018
KTPA 222153Z VRB06KT 10SM FEW050TCU BKN300 33/19 A2996 RMK AO2 LTG DSNT NW SLP143 CB DSNT SE AND W-NW TCU W-N T03330189
KTPA 222253Z 10008KT 10SM FEW050 SCT220 BKN300 32/20 A2996 RMK AO2 SLP146 CB DSNT W AND NW T03220200
KTPA 222353Z 06006KT 10SM FEW035 BKN300 31/19 A2996 RMK AO2 SLP145 CB DSNT W AND NW T03110194 10344 20311 50004
KTPA 230053Z VRB04KT 10SM FEW025 SCT280 31/20 A2997 RMK AO2 SLP149 FRQ LTGIC DSNT NW CB DSNT NW T03060200
KTPA 230153Z VRB04KT 10SM FEW025 SCT190 29/22 A3000 RMK AO2 SLP158 OCNL LTGIC DSNT NW CB DSNT NW T02940217



Page loaded:  02:17 UTC  |   07:17 PM Pacific  |   08:17 PM Mountain  |   09:17 PM Central  |   10:17 PM Eastern

 

ADVISORIES

FORECASTS

FORECASTS

OBSERVATIONS

USER TOOLS

ABOUT US